sensor_id;sensor_type;location;lat;lon;timestamp;P1;durP1;ratioP1;P2;durP2;ratioP2
13244;SDS011;6689;53.400;12.486;2023-06-19T00:00:56;10.10;;;9.02;;
13244;SDS011;6689;53.400;12.486;2023-06-19T00:03:23;9.30;;;8.50;;
13244;SDS011;6689;53.400;12.486;2023-06-19T00:05:50;8.98;;;7.65;;
13244;SDS011;6689;53.400;12.486;2023-06-19T00:08:17;8.70;;;7.82;;
13244;SDS011;6689;53.400;12.486;2023-06-19T00:10:47;9.13;;;8.23;;
13244;SDS011;6689;53.400;12.486;2023-06-19T00:13:14;9.15;;;8.35;;
13244;SDS011;6689;53.400;12.486;2023-06-19T00:15:42;9.20;;;8.40;;
13244;SDS011;6689;53.400;12.486;2023-06-19T00:18:09;14.43;;;8.38;;
13244;SDS011;6689;53.400;12.486;2023-06-19T00:20:36;10.05;;;9.13;;
13244;SDS011;6689;53.400;12.486;2023-06-19T00:23:04;8.95;;;8.15;;
13244;SDS011;6689;53.400;12.486;2023-06-19T00:25:35;9.25;;;8.35;;
13244;SDS011;6689;53.400;12.486;2023-06-19T00:28:04;12.38;;;9.73;;
13244;SDS011;6689;53.400;12.486;2023-06-19T00:30:38;12.57;;;9.38;;
13244;SDS011;6689;53.400;12.486;2023-06-19T00:33:06;10.45;;;9.35;;
13244;SDS011;6689;53.400;12.486;2023-06-19T00:35:33;10.43;;;9.43;;
13244;SDS011;6689;53.400;12.486;2023-06-19T00:38:01;11.93;;;9.82;;
13244;SDS011;6689;53.400;12.486;2023-06-19T00:40:28;10.43;;;9.43;;
13244;SDS011;6689;53.400;12.486;2023-06-19T00:42:56;10.50;;;9.52;;
13244;SDS011;6689;53.400;12.486;2023-06-19T00:45:26;12.02;;;10.82;;
13244;SDS011;6689;53.400;12.486;2023-06-19T00:47:54;11.57;;;9.48;;
13244;SDS011;6689;53.400;12.486;2023-06-19T00:50:22;11.05;;;9.95;;
13244;SDS011;6689;53.400;12.486;2023-06-19T00:52:50;10.82;;;9.73;;
13244;SDS011;6689;53.400;12.486;2023-06-19T00:55:18;10.45;;;9.38;;
13244;SDS011;6689;53.400;12.486;2023-06-19T00:57:46;11.73;;;10.57;;
13244;SDS011;6689;53.400;12.486;2023-06-19T01:00:14;10.90;;;9.90;;
13244;SDS011;6689;53.400;12.486;2023-06-19T01:02:44;10.95;;;9.90;;
13244;SDS011;6689;53.400;12.486;2023-06-19T01:05:13;10.80;;;9.80;;
13244;SDS011;6689;53.400;12.486;2023-06-19T01:07:43;10.77;;;9.80;;
13244;SDS011;6689;53.400;12.486;2023-06-19T01:10:15;10.50;;;9.60;;
13244;SDS011;6689;53.400;12.486;2023-06-19T01:12:49;10.48;;;9.55;;
13244;SDS011;6689;53.400;12.486;2023-06-19T01:15:22;10.82;;;9.68;;
13244;SDS011;6689;53.400;12.486;2023-06-19T01:17:51;11.20;;;10.07;;
13244;SDS011;6689;53.400;12.486;2023-06-19T01:20:20;10.75;;;9.75;;
13244;SDS011;6689;53.400;12.486;2023-06-19T01:22:49;14.25;;;9.85;;
13244;SDS011;6689;53.400;12.486;2023-06-19T01:25:16;10.55;;;9.55;;
13244;SDS011;6689;53.400;12.486;2023-06-19T01:27:43;11.02;;;9.85;;
13244;SDS011;6689;53.400;12.486;2023-06-19T01:30:12;13.55;;;10.13;;
13244;SDS011;6689;53.400;12.486;2023-06-19T01:32:41;12.07;;;10.82;;
13244;SDS011;6689;53.400;12.486;2023-06-19T01:35:17;11.80;;;10.35;;
13244;SDS011;6689;53.400;12.486;2023-06-19T01:37:49;11.40;;;10.40;;
13244;SDS011;6689;53.400;12.486;2023-06-19T01:40:18;12.30;;;11.07;;
13244;SDS011;6689;53.400;12.486;2023-06-19T01:42:49;14.35;;;12.07;;
13244;SDS011;6689;53.400;12.486;2023-06-19T01:45:18;15.10;;;10.45;;
13244;SDS011;6689;53.400;12.486;2023-06-19T01:47:45;12.70;;;10.50;;
13244;SDS011;6689;53.400;12.486;2023-06-19T01:50:12;10.85;;;9.90;;
13244;SDS011;6689;53.400;12.486;2023-06-19T01:52:40;12.25;;;11.05;;
13244;SDS011;6689;53.400;12.486;2023-06-19T01:55:09;12.05;;;10.70;;
13244;SDS011;6689;53.400;12.486;2023-06-19T01:57:37;12.02;;;10.93;;
13244;SDS011;6689;53.400;12.486;2023-06-19T02:00:04;11.38;;;10.27;;
13244;SDS011;6689;53.400;12.486;2023-06-19T02:02:33;11.32;;;10.23;;
13244;SDS011;6689;53.400;12.486;2023-06-19T02:05:00;12.35;;;11.25;;
13244;SDS011;6689;53.400;12.486;2023-06-19T02:07:27;11.43;;;10.43;;
13244;SDS011;6689;53.400;12.486;2023-06-19T02:09:54;12.70;;;11.40;;
13244;SDS011;6689;53.400;12.486;2023-06-19T02:12:23;12.52;;;11.23;;
13244;SDS011;6689;53.400;12.486;2023-06-19T02:14:50;11.07;;;10.07;;
13244;SDS011;6689;53.400;12.486;2023-06-19T02:17:18;12.35;;;11.15;;
13244;SDS011;6689;53.400;12.486;2023-06-19T02:19:45;12.02;;;10.93;;
13244;SDS011;6689;53.400;12.486;2023-06-19T02:22:12;10.80;;;9.88;;
13244;SDS011;6689;53.400;12.486;2023-06-19T02:24:39;12.00;;;10.85;;
13244;SDS011;6689;53.400;12.486;2023-06-19T02:27:07;11.27;;;10.27;;
13244;SDS011;6689;53.400;12.486;2023-06-19T02:29:35;16.00;;;11.23;;
13244;SDS011;6689;53.400;12.486;2023-06-19T02:32:03;11.75;;;10.63;;
13244;SDS011;6689;53.400;12.486;2023-06-19T02:34:31;12.85;;;11.32;;
13244;SDS011;6689;53.400;12.486;2023-06-19T02:36:58;13.25;;;11.75;;
13244;SDS011;6689;53.400;12.486;2023-06-19T02:39:26;15.35;;;12.05;;
13244;SDS011;6689;53.400;12.486;2023-06-19T02:41:53;13.10;;;11.90;;
13244;SDS011;6689;53.400;12.486;2023-06-19T02:44:20;13.02;;;11.70;;
13244;SDS011;6689;53.400;12.486;2023-06-19T02:46:49;14.13;;;12.88;;
13244;SDS011;6689;53.400;12.486;2023-06-19T02:49:16;14.70;;;11.93;;
13244;SDS011;6689;53.400;12.486;2023-06-19T02:51:44;13.32;;;12.13;;
13244;SDS011;6689;53.400;12.486;2023-06-19T02:54:11;12.93;;;11.63;;
13244;SDS011;6689;53.400;12.486;2023-06-19T02:56:38;12.85;;;11.65;;
13244;SDS011;6689;53.400;12.486;2023-06-19T02:59:05;13.55;;;12.40;;
13244;SDS011;6689;53.400;12.486;2023-06-19T03:01:33;15.73;;;12.32;;
13244;SDS011;6689;53.400;12.486;2023-06-19T03:04:01;15.85;;;12.23;;
13244;SDS011;6689;53.400;12.486;2023-06-19T03:06:29;12.60;;;11.48;;
13244;SDS011;6689;53.400;12.486;2023-06-19T03:08:58;11.40;;;10.18;;
13244;SDS011;6689;53.400;12.486;2023-06-19T03:11:26;12.60;;;11.50;;
13244;SDS011;6689;53.400;12.486;2023-06-19T03:13:53;15.43;;;12.13;;
13244;SDS011;6689;53.400;12.486;2023-06-19T03:16:21;13.75;;;12.32;;
13244;SDS011;6689;53.400;12.486;2023-06-19T03:18:48;12.43;;;11.13;;
13244;SDS011;6689;53.400;12.486;2023-06-19T03:21:17;13.52;;;12.25;;
13244;SDS011;6689;53.400;12.486;2023-06-19T03:23:45;14.32;;;13.02;;
13244;SDS011;6689;53.400;12.486;2023-06-19T03:26:12;14.15;;;12.95;;
13244;SDS011;6689;53.400;12.486;2023-06-19T03:28:39;13.45;;;12.05;;
13244;SDS011;6689;53.400;12.486;2023-06-19T03:31:06;12.93;;;11.73;;
13244;SDS011;6689;53.400;12.486;2023-06-19T03:33:33;11.73;;;10.73;;
13244;SDS011;6689;53.400;12.486;2023-06-19T03:36:00;13.73;;;12.35;;
13244;SDS011;6689;53.400;12.486;2023-06-19T03:38:29;13.00;;;11.80;;
13244;SDS011;6689;53.400;12.486;2023-06-19T03:40:56;14.95;;;13.52;;
13244;SDS011;6689;53.400;12.486;2023-06-19T03:43:23;15.48;;;14.07;;
13244;SDS011;6689;53.400;12.486;2023-06-19T03:45:51;16.05;;;14.55;;
13244;SDS011;6689;53.400;12.486;2023-06-19T03:48:18;14.35;;;13.10;;
13244;SDS011;6689;53.400;12.486;2023-06-19T03:50:45;18.60;;;13.93;;
13244;SDS011;6689;53.400;12.486;2023-06-19T03:53:12;16.52;;;14.68;;
13244;SDS011;6689;53.400;12.486;2023-06-19T03:55:41;14.52;;;13.13;;
13244;SDS011;6689;53.400;12.486;2023-06-19T03:58:09;14.93;;;13.73;;
13244;SDS011;6689;53.400;12.486;2023-06-19T04:00:36;15.38;;;13.90;;
13244;SDS011;6689;53.400;12.486;2023-06-19T04:03:03;14.65;;;13.38;;
13244;SDS011;6689;53.400;12.486;2023-06-19T04:05:30;15.88;;;14.30;;
13244;SDS011;6689;53.400;12.486;2023-06-19T04:07:57;15.35;;;13.95;;
13244;SDS011;6689;53.400;12.486;2023-06-19T04:10:25;15.02;;;13.63;;
13244;SDS011;6689;53.400;12.486;2023-06-19T04:12:53;14.63;;;13.23;;
13244;SDS011;6689;53.400;12.486;2023-06-19T04:15:21;15.10;;;13.73;;
13244;SDS011;6689;53.400;12.486;2023-06-19T04:17:49;14.93;;;12.30;;
13244;SDS011;6689;53.400;12.486;2023-06-19T04:20:16;12.40;;;11.27;;
13244;SDS011;6689;53.400;12.486;2023-06-19T04:22:43;12.38;;;9.95;;
13244;SDS011;6689;53.400;12.486;2023-06-19T04:25:11;12.02;;;10.88;;
13244;SDS011;6689;53.400;12.486;2023-06-19T04:27:38;11.23;;;10.07;;
13244;SDS011;6689;53.400;12.486;2023-06-19T04:30:07;12.50;;;11.50;;
13244;SDS011;6689;53.400;12.486;2023-06-19T04:32:35;12.50;;;11.38;;
13244;SDS011;6689;53.400;12.486;2023-06-19T04:35:06;13.60;;;10.77;;
13244;SDS011;6689;53.400;12.486;2023-06-19T04:37:34;12.95;;;11.85;;
13244;SDS011;6689;53.400;12.486;2023-06-19T04:40:01;13.43;;;12.20;;
13244;SDS011;6689;53.400;12.486;2023-06-19T04:42:29;12.90;;;11.75;;
13244;SDS011;6689;53.400;12.486;2023-06-19T04:44:56;14.52;;;13.15;;
13244;SDS011;6689;53.400;12.486;2023-06-19T04:47:25;15.95;;;14.65;;
13244;SDS011;6689;53.400;12.486;2023-06-19T04:49:52;15.32;;;13.80;;
13244;SDS011;6689;53.400;12.486;2023-06-19T04:52:20;14.50;;;13.10;;
13244;SDS011;6689;53.400;12.486;2023-06-19T04:54:47;13.07;;;11.93;;
13244;SDS011;6689;53.400;12.486;2023-06-19T04:57:15;14.15;;;12.85;;
13244;SDS011;6689;53.400;12.486;2023-06-19T04:59:42;14.82;;;13.40;;
13244;SDS011;6689;53.400;12.486;2023-06-19T05:02:09;14.50;;;13.10;;
13244;SDS011;6689;53.400;12.486;2023-06-19T05:04:38;15.40;;;14.05;;
13244;SDS011;6689;53.400;12.486;2023-06-19T05:07:08;15.13;;;13.57;;
13244;SDS011;6689;53.400;12.486;2023-06-19T05:09:35;14.77;;;13.57;;
13244;SDS011;6689;53.400;12.486;2023-06-19T05:12:03;16.02;;;14.10;;
13244;SDS011;6689;53.400;12.486;2023-06-19T05:14:30;15.27;;;13.77;;
13244;SDS011;6689;53.400;12.486;2023-06-19T05:16:58;14.27;;;12.98;;
13244;SDS011;6689;53.400;12.486;2023-06-19T05:19:25;15.13;;;13.65;;
13244;SDS011;6689;53.400;12.486;2023-06-19T05:21:54;14.80;;;13.57;;
13244;SDS011;6689;53.400;12.486;2023-06-19T05:24:21;15.25;;;13.80;;
13244;SDS011;6689;53.400;12.486;2023-06-19T05:26:49;15.23;;;13.95;;
13244;SDS011;6689;53.400;12.486;2023-06-19T05:29:16;14.00;;;12.70;;
13244;SDS011;6689;53.400;12.486;2023-06-19T05:31:43;15.48;;;13.38;;
13244;SDS011;6689;53.400;12.486;2023-06-19T05:34:10;15.45;;;13.15;;
13244;SDS011;6689;53.400;12.486;2023-06-19T05:36:38;15.13;;;13.82;;
13244;SDS011;6689;53.400;12.486;2023-06-19T05:39:06;21.60;;;13.95;;
13244;SDS011;6689;53.400;12.486;2023-06-19T05:41:34;15.00;;;13.80;;
13244;SDS011;6689;53.400;12.486;2023-06-19T05:44:02;16.23;;;14.82;;
13244;SDS011;6689;53.400;12.486;2023-06-19T05:46:29;16.92;;;15.48;;
13244;SDS011;6689;53.400;12.486;2023-06-19T05:48:56;15.68;;;14.32;;
13244;SDS011;6689;53.400;12.486;2023-06-19T05:51:24;18.67;;;15.32;;
13244;SDS011;6689;53.400;12.486;2023-06-19T05:53:51;16.40;;;14.82;;
13244;SDS011;6689;53.400;12.486;2023-06-19T05:56:19;16.67;;;15.18;;
13244;SDS011;6689;53.400;12.486;2023-06-19T05:58:49;15.82;;;14.25;;
13244;SDS011;6689;53.400;12.486;2023-06-19T06:01:16;16.30;;;14.70;;
13244;SDS011;6689;53.400;12.486;2023-06-19T06:03:43;15.20;;;13.90;;
13244;SDS011;6689;53.400;12.486;2023-06-19T06:06:11;16.88;;;15.35;;
13244;SDS011;6689;53.400;12.486;2023-06-19T06:08:38;16.73;;;15.32;;
13244;SDS011;6689;53.400;12.486;2023-06-19T06:11:05;16.33;;;15.02;;
13244;SDS011;6689;53.400;12.486;2023-06-19T06:13:34;16.33;;;14.93;;
13244;SDS011;6689;53.400;12.486;2023-06-19T06:16:01;15.40;;;13.77;;
13244;SDS011;6689;53.400;12.486;2023-06-19T06:18:28;16.05;;;14.65;;
13244;SDS011;6689;53.400;12.486;2023-06-19T06:20:57;17.15;;;15.48;;
13244;SDS011;6689;53.400;12.486;2023-06-19T06:23:25;15.85;;;14.55;;
13244;SDS011;6689;53.400;12.486;2023-06-19T06:25:52;16.98;;;15.02;;
13244;SDS011;6689;53.400;12.486;2023-06-19T06:28:26;16.40;;;14.90;;
13244;SDS011;6689;53.400;12.486;2023-06-19T06:30:55;15.82;;;14.43;;
13244;SDS011;6689;53.400;12.486;2023-06-19T06:33:22;17.85;;;16.35;;
13244;SDS011;6689;53.400;12.486;2023-06-19T06:35:49;16.17;;;14.85;;
13244;SDS011;6689;53.400;12.486;2023-06-19T06:38:17;16.95;;;15.55;;
13244;SDS011;6689;53.400;12.486;2023-06-19T06:40:44;16.92;;;15.52;;
13244;SDS011;6689;53.400;12.486;2023-06-19T06:43:12;17.00;;;15.60;;
13244;SDS011;6689;53.400;12.486;2023-06-19T06:45:39;17.65;;;16.15;;
13244;SDS011;6689;53.400;12.486;2023-06-19T06:48:08;18.00;;;16.42;;
13244;SDS011;6689;53.400;12.486;2023-06-19T06:50:36;18.08;;;16.58;;
13244;SDS011;6689;53.400;12.486;2023-06-19T06:53:03;20.08;;;18.35;;
13244;SDS011;6689;53.400;12.486;2023-06-19T06:55:30;19.25;;;17.65;;
13244;SDS011;6689;53.400;12.486;2023-06-19T06:57:57;19.67;;;18.08;;
13244;SDS011;6689;53.400;12.486;2023-06-19T07:00:25;18.40;;;16.90;;
13244;SDS011;6689;53.400;12.486;2023-06-19T07:02:52;21.33;;;19.33;;
13244;SDS011;6689;53.400;12.486;2023-06-19T07:05:24;20.35;;;18.65;;
13244;SDS011;6689;53.400;12.486;2023-06-19T07:07:51;21.42;;;19.55;;
13244;SDS011;6689;53.400;12.486;2023-06-19T07:10:18;21.58;;;19.67;;
13244;SDS011;6689;53.400;12.486;2023-06-19T07:12:46;22.48;;;20.58;;
13244;SDS011;6689;53.400;12.486;2023-06-19T07:15:14;21.95;;;20.05;;
13244;SDS011;6689;53.400;12.486;2023-06-19T07:17:41;23.20;;;21.10;;
13244;SDS011;6689;53.400;12.486;2023-06-19T07:20:09;21.65;;;19.85;;
13244;SDS011;6689;53.400;12.486;2023-06-19T07:22:38;21.90;;;19.90;;
13244;SDS011;6689;53.400;12.486;2023-06-19T07:25:06;22.45;;;20.45;;
13244;SDS011;6689;53.400;12.486;2023-06-19T07:27:35;23.40;;;21.35;;
13244;SDS011;6689;53.400;12.486;2023-06-19T07:30:02;22.30;;;20.10;;
13244;SDS011;6689;53.400;12.486;2023-06-19T07:32:30;23.23;;;21.23;;
13244;SDS011;6689;53.400;12.486;2023-06-19T07:34:57;23.25;;;21.27;;
13244;SDS011;6689;53.400;12.486;2023-06-19T07:37:25;21.25;;;19.35;;
13244;SDS011;6689;53.400;12.486;2023-06-19T07:39:53;22.48;;;20.33;;
13244;SDS011;6689;53.400;12.486;2023-06-19T07:42:21;21.80;;;19.95;;
13244;SDS011;6689;53.400;12.486;2023-06-19T07:44:49;20.65;;;18.95;;
13244;SDS011;6689;53.400;12.486;2023-06-19T07:47:16;19.25;;;17.65;;
13244;SDS011;6689;53.400;12.486;2023-06-19T07:49:45;18.60;;;17.20;;
13244;SDS011;6689;53.400;12.486;2023-06-19T07:52:13;19.95;;;18.30;;
13244;SDS011;6689;53.400;12.486;2023-06-19T07:54:50;17.98;;;16.17;;
13244;SDS011;6689;53.400;12.486;2023-06-19T07:57:20;18.33;;;16.83;;
13244;SDS011;6689;53.400;12.486;2023-06-19T07:59:48;19.23;;;17.38;;
13244;SDS011;6689;53.400;12.486;2023-06-19T08:02:16;19.35;;;17.75;;
13244;SDS011;6689;53.400;12.486;2023-06-19T08:04:44;18.58;;;17.00;;
13244;SDS011;6689;53.400;12.486;2023-06-19T08:07:12;18.13;;;16.63;;
13244;SDS011;6689;53.400;12.486;2023-06-19T08:09:39;18.27;;;16.70;;
13244;SDS011;6689;53.400;12.486;2023-06-19T08:12:07;18.52;;;16.88;;
13244;SDS011;6689;53.400;12.486;2023-06-19T08:14:35;18.98;;;17.45;;
13244;SDS011;6689;53.400;12.486;2023-06-19T08:17:03;20.40;;;18.27;;
13244;SDS011;6689;53.400;12.486;2023-06-19T08:19:31;20.10;;;18.30;;
13244;SDS011;6689;53.400;12.486;2023-06-19T08:21:58;19.58;;;17.98;;
13244;SDS011;6689;53.400;12.486;2023-06-19T08:24:25;19.25;;;17.60;;
13244;SDS011;6689;53.400;12.486;2023-06-19T08:26:52;19.00;;;17.48;;
13244;SDS011;6689;53.400;12.486;2023-06-19T08:29:20;20.60;;;19.00;;
13244;SDS011;6689;53.400;12.486;2023-06-19T08:31:50;20.67;;;19.05;;
13244;SDS011;6689;53.400;12.486;2023-06-19T08:34:17;18.40;;;16.80;;
13244;SDS011;6689;53.400;12.486;2023-06-19T08:36:44;18.77;;;17.25;;
13244;SDS011;6689;53.400;12.486;2023-06-19T08:39:12;18.02;;;16.42;;
13244;SDS011;6689;53.400;12.486;2023-06-19T08:41:39;19.95;;;17.85;;
13244;SDS011;6689;53.400;12.486;2023-06-19T08:44:07;17.58;;;16.08;;
13244;SDS011;6689;53.400;12.486;2023-06-19T08:46:34;18.08;;;16.58;;
13244;SDS011;6689;53.400;12.486;2023-06-19T08:49:04;18.48;;;16.98;;
13244;SDS011;6689;53.400;12.486;2023-06-19T08:51:32;19.13;;;17.55;;
13244;SDS011;6689;53.400;12.486;2023-06-19T08:54:00;19.83;;;18.08;;
13244;SDS011;6689;53.400;12.486;2023-06-19T08:56:30;19.13;;;17.52;;
13244;SDS011;6689;53.400;12.486;2023-06-19T08:59:09;18.92;;;17.33;;
13244;SDS011;6689;53.400;12.486;2023-06-19T09:01:37;17.75;;;16.35;;
13244;SDS011;6689;53.400;12.486;2023-06-19T09:04:10;17.73;;;16.13;;
13244;SDS011;6689;53.400;12.486;2023-06-19T09:06:45;18.48;;;16.90;;
13244;SDS011;6689;53.400;12.486;2023-06-19T09:09:16;18.02;;;16.42;;
13244;SDS011;6689;53.400;12.486;2023-06-19T09:11:56;18.10;;;16.60;;
13244;SDS011;6689;53.400;12.486;2023-06-19T09:14:30;17.52;;;16.02;;
13244;SDS011;6689;53.400;12.486;2023-06-19T09:16:59;19.23;;;17.40;;
13244;SDS011;6689;53.400;12.486;2023-06-19T09:19:28;16.52;;;15.18;;
13244;SDS011;6689;53.400;12.486;2023-06-19T09:22:00;16.58;;;15.25;;
13244;SDS011;6689;53.400;12.486;2023-06-19T09:24:34;16.23;;;14.80;;
13244;SDS011;6689;53.400;12.486;2023-06-19T09:27:09;17.25;;;15.82;;
13244;SDS011;6689;53.400;12.486;2023-06-19T09:29:39;15.93;;;14.65;;
13244;SDS011;6689;53.400;12.486;2023-06-19T09:32:16;16.77;;;15.38;;
13244;SDS011;6689;53.400;12.486;2023-06-19T09:34:48;17.70;;;16.20;;
13244;SDS011;6689;53.400;12.486;2023-06-19T09:37:16;17.55;;;16.05;;
13244;SDS011;6689;53.400;12.486;2023-06-19T09:39:49;20.30;;;15.32;;
13244;SDS011;6689;53.400;12.486;2023-06-19T09:42:20;17.15;;;15.75;;
13244;SDS011;6689;53.400;12.486;2023-06-19T09:44:54;17.15;;;15.75;;
13244;SDS011;6689;53.400;12.486;2023-06-19T09:47:25;17.77;;;16.30;;
13244;SDS011;6689;53.400;12.486;2023-06-19T09:49:57;17.10;;;15.60;;
13244;SDS011;6689;53.400;12.486;2023-06-19T09:52:27;17.33;;;15.75;;
13244;SDS011;6689;53.400;12.486;2023-06-19T09:54:55;15.90;;;14.55;;
13244;SDS011;6689;53.400;12.486;2023-06-19T09:57:23;16.30;;;14.90;;
13244;SDS011;6689;53.400;12.486;2023-06-19T09:59:53;15.88;;;14.57;;
13244;SDS011;6689;53.400;12.486;2023-06-19T10:02:22;17.40;;;15.68;;
13244;SDS011;6689;53.400;12.486;2023-06-19T10:04:53;16.00;;;14.68;;
13244;SDS011;6689;53.400;12.486;2023-06-19T10:07:23;16.20;;;14.85;;
13244;SDS011;6689;53.400;12.486;2023-06-19T10:09:59;15.38;;;14.13;;
13244;SDS011;6689;53.400;12.486;2023-06-19T10:12:36;15.95;;;14.55;;
13244;SDS011;6689;53.400;12.486;2023-06-19T10:15:11;16.00;;;14.70;;
13244;SDS011;6689;53.400;12.486;2023-06-19T10:17:42;16.90;;;15.60;;
13244;SDS011;6689;53.400;12.486;2023-06-19T10:20:24;16.42;;;15.13;;
13244;SDS011;6689;53.400;12.486;2023-06-19T10:22:59;14.93;;;13.65;;
13244;SDS011;6689;53.400;12.486;2023-06-19T10:25:28;16.20;;;14.90;;
13244;SDS011;6689;53.400;12.486;2023-06-19T10:27:57;17.48;;;16.05;;
13244;SDS011;6689;53.400;12.486;2023-06-19T10:30:25;15.30;;;13.95;;
13244;SDS011;6689;53.400;12.486;2023-06-19T10:32:54;16.27;;;14.98;;
13244;SDS011;6689;53.400;12.486;2023-06-19T10:35:22;15.32;;;14.02;;
13244;SDS011;6689;53.400;12.486;2023-06-19T10:37:50;15.73;;;14.43;;
13244;SDS011;6689;53.400;12.486;2023-06-19T10:40:19;16.23;;;14.82;;
13244;SDS011;6689;53.400;12.486;2023-06-19T10:42:46;15.75;;;14.45;;
13244;SDS011;6689;53.400;12.486;2023-06-19T10:45:14;16.55;;;15.05;;
13244;SDS011;6689;53.400;12.486;2023-06-19T10:47:46;15.23;;;13.88;;
13244;SDS011;6689;53.400;12.486;2023-06-19T10:50:14;15.13;;;13.93;;
13244;SDS011;6689;53.400;12.486;2023-06-19T10:52:42;14.98;;;13.68;;
13244;SDS011;6689;53.400;12.486;2023-06-19T10:55:11;16.80;;;15.27;;
13244;SDS011;6689;53.400;12.486;2023-06-19T10:57:43;15.85;;;14.35;;
13244;SDS011;6689;53.400;12.486;2023-06-19T11:00:11;16.48;;;14.93;;
13244;SDS011;6689;53.400;12.486;2023-06-19T11:02:50;16.73;;;15.27;;
13244;SDS011;6689;53.400;12.486;2023-06-19T11:05:19;16.02;;;14.55;;
13244;SDS011;6689;53.400;12.486;2023-06-19T11:07:50;14.88;;;13.65;;
13244;SDS011;6689;53.400;12.486;2023-06-19T11:10:21;15.82;;;14.43;;
13244;SDS011;6689;53.400;12.486;2023-06-19T11:12:53;15.95;;;14.60;;
13244;SDS011;6689;53.400;12.486;2023-06-19T11:15:27;14.65;;;13.40;;
13244;SDS011;6689;53.400;12.486;2023-06-19T11:17:56;16.05;;;14.57;;
13244;SDS011;6689;53.400;12.486;2023-06-19T11:20:23;14.90;;;13.50;;
13244;SDS011;6689;53.400;12.486;2023-06-19T11:22:54;15.15;;;13.85;;
13244;SDS011;6689;53.400;12.486;2023-06-19T11:25:23;14.75;;;13.55;;
13244;SDS011;6689;53.400;12.486;2023-06-19T11:27:52;14.80;;;13.55;;
13244;SDS011;6689;53.400;12.486;2023-06-19T11:30:29;14.43;;;13.13;;
13244;SDS011;6689;53.400;12.486;2023-06-19T11:32:58;15.00;;;13.48;;
13244;SDS011;6689;53.400;12.486;2023-06-19T11:35:31;13.73;;;12.63;;
13244;SDS011;6689;53.400;12.486;2023-06-19T11:38:01;13.55;;;12.13;;
13244;SDS011;6689;53.400;12.486;2023-06-19T11:40:38;13.40;;;12.30;;
13244;SDS011;6689;53.400;12.486;2023-06-19T11:43:07;13.27;;;12.18;;
13244;SDS011;6689;53.400;12.486;2023-06-19T11:45:44;12.68;;;11.65;;
13244;SDS011;6689;53.400;12.486;2023-06-19T11:48:12;11.85;;;10.75;;
13244;SDS011;6689;53.400;12.486;2023-06-19T11:50:39;13.23;;;12.05;;
13244;SDS011;6689;53.400;12.486;2023-06-19T11:53:07;12.98;;;11.88;;
13244;SDS011;6689;53.400;12.486;2023-06-19T11:55:34;12.63;;;11.60;;
13244;SDS011;6689;53.400;12.486;2023-06-19T11:58:02;12.20;;;11.18;;
13244;SDS011;6689;53.400;12.486;2023-06-19T12:00:31;12.73;;;11.40;;
13244;SDS011;6689;53.400;12.486;2023-06-19T12:02:58;12.50;;;11.30;;
13244;SDS011;6689;53.400;12.486;2023-06-19T12:05:26;11.65;;;10.55;;
13244;SDS011;6689;53.400;12.486;2023-06-19T12:07:53;11.20;;;10.30;;
13244;SDS011;6689;53.400;12.486;2023-06-19T12:10:20;12.70;;;11.63;;
13244;SDS011;6689;53.400;12.486;2023-06-19T12:12:49;12.20;;;11.20;;
13244;SDS011;6689;53.400;12.486;2023-06-19T12:15:16;12.77;;;11.48;;
13244;SDS011;6689;53.400;12.486;2023-06-19T12:17:45;12.75;;;11.65;;
13244;SDS011;6689;53.400;12.486;2023-06-19T12:20:12;12.38;;;11.38;;
13244;SDS011;6689;53.400;12.486;2023-06-19T12:22:40;13.38;;;12.00;;
13244;SDS011;6689;53.400;12.486;2023-06-19T12:25:07;12.65;;;11.55;;
13244;SDS011;6689;53.400;12.486;2023-06-19T12:27:35;11.85;;;10.85;;
13244;SDS011;6689;53.400;12.486;2023-06-19T12:30:03;11.98;;;10.98;;
13244;SDS011;6689;53.400;12.486;2023-06-19T12:32:32;11.73;;;10.73;;
13244;SDS011;6689;53.400;12.486;2023-06-19T12:35:01;12.85;;;11.57;;
13244;SDS011;6689;53.400;12.486;2023-06-19T12:37:29;10.80;;;9.80;;
13244;SDS011;6689;53.400;12.486;2023-06-19T12:39:56;11.50;;;10.60;;
13244;SDS011;6689;53.400;12.486;2023-06-19T12:42:24;10.95;;;10.02;;
13244;SDS011;6689;53.400;12.486;2023-06-19T12:44:51;10.40;;;9.50;;
13244;SDS011;6689;53.400;12.486;2023-06-19T12:47:18;10.60;;;9.70;;
13244;SDS011;6689;53.400;12.486;2023-06-19T12:49:48;10.57;;;9.50;;
13244;SDS011;6689;53.400;12.486;2023-06-19T12:52:17;11.05;;;10.15;;
13244;SDS011;6689;53.400;12.486;2023-06-19T12:54:46;10.90;;;9.95;;
13244;SDS011;6689;53.400;12.486;2023-06-19T12:57:13;8.68;;;7.88;;
13244;SDS011;6689;53.400;12.486;2023-06-19T12:59:40;9.20;;;8.40;;
13244;SDS011;6689;53.400;12.486;2023-06-19T13:02:08;7.63;;;6.88;;
13244;SDS011;6689;53.400;12.486;2023-06-19T13:04:35;9.23;;;8.38;;
13244;SDS011;6689;53.400;12.486;2023-06-19T13:07:03;8.50;;;7.80;;
13244;SDS011;6689;53.400;12.486;2023-06-19T13:09:32;8.40;;;7.70;;
13244;SDS011;6689;53.400;12.486;2023-06-19T13:12:01;8.95;;;8.25;;
13244;SDS011;6689;53.400;12.486;2023-06-19T13:14:28;9.20;;;7.80;;
13244;SDS011;6689;53.400;12.486;2023-06-19T13:16:57;8.98;;;8.18;;
13244;SDS011;6689;53.400;12.486;2023-06-19T13:19:25;9.48;;;8.57;;
13244;SDS011;6689;53.400;12.486;2023-06-19T13:21:52;8.25;;;7.45;;
13244;SDS011;6689;53.400;12.486;2023-06-19T13:24:19;9.77;;;8.77;;
13244;SDS011;6689;53.400;12.486;2023-06-19T13:26:48;8.38;;;7.63;;
13244;SDS011;6689;53.400;12.486;2023-06-19T13:29:16;8.32;;;7.63;;
13244;SDS011;6689;53.400;12.486;2023-06-19T13:31:43;9.48;;;7.53;;
13244;SDS011;6689;53.400;12.486;2023-06-19T13:34:10;8.85;;;7.95;;
13244;SDS011;6689;53.400;12.486;2023-06-19T13:36:38;10.25;;;7.85;;
13244;SDS011;6689;53.400;12.486;2023-06-19T13:39:06;8.63;;;7.93;;
13244;SDS011;6689;53.400;12.486;2023-06-19T13:41:33;8.57;;;7.57;;
13244;SDS011;6689;53.400;12.486;2023-06-19T13:44:02;9.15;;;8.25;;
13244;SDS011;6689;53.400;12.486;2023-06-19T13:46:29;8.45;;;7.63;;
13244;SDS011;6689;53.400;12.486;2023-06-19T13:48:57;8.07;;;7.28;;
13244;SDS011;6689;53.400;12.486;2023-06-19T13:51:24;8.07;;;7.25;;
13244;SDS011;6689;53.400;12.486;2023-06-19T13:53:52;8.77;;;7.10;;
13244;SDS011;6689;53.400;12.486;2023-06-19T13:56:19;8.35;;;7.53;;
13244;SDS011;6689;53.400;12.486;2023-06-19T13:58:48;8.25;;;7.53;;
13244;SDS011;6689;53.400;12.486;2023-06-19T14:01:17;8.18;;;7.38;;
13244;SDS011;6689;53.400;12.486;2023-06-19T14:03:44;8.93;;;7.75;;
13244;SDS011;6689;53.400;12.486;2023-06-19T14:06:12;8.38;;;7.63;;
13244;SDS011;6689;53.400;12.486;2023-06-19T14:08:39;9.07;;;8.13;;
13244;SDS011;6689;53.400;12.486;2023-06-19T14:11:07;9.48;;;8.02;;
13244;SDS011;6689;53.400;12.486;2023-06-19T14:13:34;9.20;;;8.40;;
13244;SDS011;6689;53.400;12.486;2023-06-19T14:16:02;9.10;;;8.30;;
13244;SDS011;6689;53.400;12.486;2023-06-19T14:18:31;9.80;;;8.48;;
13244;SDS011;6689;53.400;12.486;2023-06-19T14:20:58;8.90;;;8.10;;
13244;SDS011;6689;53.400;12.486;2023-06-19T14:23:26;8.82;;;8.02;;
13244;SDS011;6689;53.400;12.486;2023-06-19T14:25:53;9.05;;;8.20;;
13244;SDS011;6689;53.400;12.486;2023-06-19T14:28:21;9.07;;;8.25;;
13244;SDS011;6689;53.400;12.486;2023-06-19T14:30:48;9.13;;;8.40;;
13244;SDS011;6689;53.400;12.486;2023-06-19T14:33:15;10.02;;;9.02;;